createdAt,value
2023-04-20T00:01:05.292Z,12.95
2023-04-20T00:06:01.275Z,13.01
2023-04-20T00:10:55.903Z,12.94
2023-04-20T00:15:49.038Z,12.85
2023-04-20T00:20:42.346Z,12.35
2023-04-20T00:25:35.652Z,12.72
2023-04-20T00:30:30.370Z,12.50
2023-04-20T00:35:24.150Z,12.74
2023-04-20T00:40:18.129Z,12.46
2023-04-20T00:45:11.815Z,12.60
2023-04-20T00:50:07.839Z,12.42
2023-04-20T00:55:01.945Z,12.69
2023-04-20T00:59:55.369Z,12.10
2023-04-20T01:04:49.073Z,12.36
2023-04-20T01:09:49.600Z,12.07
2023-04-20T01:14:42.879Z,12.60
2023-04-20T01:19:36.108Z,12.26
2023-04-20T01:24:30.707Z,12.04
2023-04-20T01:29:25.461Z,12.06
2023-04-20T01:34:18.770Z,12.40
2023-04-20T01:39:14.360Z,12.49
2023-04-20T01:44:09.014Z,12.53
2023-04-20T01:49:04.255Z,12.52
2023-04-20T01:53:57.444Z,12.53
2023-04-20T01:58:50.718Z,12.52
2023-04-20T02:03:45.687Z,12.53
2023-04-20T02:08:39.668Z,12.52
2023-04-20T02:13:34.258Z,12.45
2023-04-20T02:18:27.800Z,12.35
2023-04-20T02:23:22.538Z,12.35
2023-04-20T02:28:15.945Z,12.06
2023-04-20T02:33:09.168Z,11.59
2023-04-20T02:38:02.495Z,11.98
2023-04-20T02:42:58.200Z,11.97
2023-04-20T02:47:55.118Z,11.93
2023-04-20T02:52:48.486Z,12.15
2023-04-20T02:57:52.557Z,11.62
2023-04-20T03:02:49.980Z,12.07
2023-04-20T03:07:43.752Z,12.16
2023-04-20T03:12:39.133Z,12.06
2023-04-20T03:17:52.599Z,11.96
2023-04-20T03:22:46.593Z,11.96
2023-04-20T03:27:40.442Z,11.59
2023-04-20T03:32:38.544Z,11.86
2023-04-20T03:37:33.412Z,12.08
2023-04-20T03:42:26.779Z,11.85
2023-04-20T03:47:20.953Z,11.04
2023-04-20T03:52:14.142Z,11.96
2023-04-20T03:57:09.070Z,11.81
2023-04-20T04:02:02.741Z,12.01
2023-04-20T04:06:56.349Z,11.89
2023-04-20T04:11:50.389Z,11.77
2023-04-20T04:16:45.031Z,12.14
2023-04-20T04:21:39.547Z,12.17
2023-04-20T04:26:33.722Z,11.97
2023-04-20T04:31:27.733Z,12.10
2023-04-20T04:36:29.575Z,11.90
2023-04-20T04:41:25.707Z,12.32
2023-04-20T04:46:25.719Z,12.30
2023-04-20T04:51:19.138Z,12.35
2023-04-20T04:56:14.428Z,12.05
2023-04-20T05:01:07.634Z,12.30
2023-04-20T05:06:01.327Z,12.06
2023-04-20T05:10:54.607Z,12.21
2023-04-20T05:15:49.370Z,12.42
2023-04-20T05:20:42.636Z,12.36
2023-04-20T05:25:36.517Z,12.39
2023-04-20T05:30:29.723Z,12.05
2023-04-20T05:35:24.315Z,12.24
2023-04-20T05:40:17.758Z,12.23
2023-04-20T05:45:12.805Z,12.36
2023-04-20T05:50:07.096Z,12.19
2023-04-20T05:55:03.954Z,12.33
2023-04-20T05:59:57.229Z,12.28
2023-04-20T06:04:50.707Z,12.64
2023-04-20T06:09:43.975Z,12.67
2023-04-20T06:14:40.189Z,12.62
2023-04-20T06:19:33.405Z,12.65
2023-04-20T06:24:28.030Z,12.53
2023-04-20T06:29:21.236Z,12.65
2023-04-20T06:34:18.966Z,12.84
2023-04-20T06:39:14.477Z,12.76
2023-04-20T06:44:07.824Z,13.00
2023-04-20T06:49:01.051Z,13.05
2023-04-20T06:53:55.747Z,13.07
2023-04-20T06:58:48.992Z,13.13
2023-04-20T07:03:42.324Z,13.02
2023-04-20T07:08:38.442Z,13.12
2023-04-20T07:13:34.058Z,13.33
2023-04-20T07:18:27.222Z,13.04
2023-04-20T07:23:20.334Z,13.34
2023-04-20T07:28:13.535Z,13.36
2023-04-20T07:33:09.493Z,13.27
2023-04-20T07:38:02.765Z,13.42
2023-04-20T07:42:56.186Z,13.29
2023-04-20T07:47:51.565Z,13.33
2023-04-20T07:52:50.547Z,13.48
2023-04-20T07:57:43.740Z,13.40
2023-04-20T08:02:37.058Z,13.62
2023-04-20T08:07:30.355Z,12.86
2023-04-20T08:12:28.218Z,13.51
2023-04-20T08:17:21.525Z,13.69
2023-04-20T08:22:14.770Z,13.67
2023-04-20T08:27:09.719Z,13.66
2023-04-20T08:32:05.539Z,13.58
2023-04-20T08:36:58.675Z,13.78
2023-04-20T08:41:57.583Z,13.73
2023-04-20T08:46:54.925Z,13.88
2023-04-20T08:51:52.872Z,13.63
2023-04-20T08:56:47.439Z,14.03
2023-04-20T09:01:41.942Z,14.30
2023-04-20T09:06:36.193Z,13.78
2023-04-20T09:11:30.935Z,14.46
2023-04-20T09:16:24.492Z,15.89
2023-04-20T09:21:17.817Z,16.01
2023-04-20T09:26:26.176Z,17.94
2023-04-20T09:31:22.064Z,18.55
2023-04-20T09:36:21.596Z,18.39
2023-04-20T09:41:19.453Z,18.70
2023-04-20T09:46:13.570Z,17.76
2023-04-20T09:51:08.791Z,17.47
2023-04-20T09:56:07.620Z,17.43
2023-04-20T10:01:01.091Z,17.22
2023-04-20T10:05:55.889Z,16.92
2023-04-20T10:10:52.691Z,16.61
2023-04-20T10:15:48.592Z,16.87
2023-04-20T10:20:47.282Z,17.61
2023-04-20T10:26:02.890Z,17.21
2023-04-20T10:30:59.296Z,18.74
2023-04-20T10:35:55.450Z,18.62
2023-04-20T10:40:49.253Z,19.42
2023-04-20T10:45:44.087Z,19.45
2023-04-20T10:50:41.510Z,20.66
2023-04-20T10:55:38.133Z,21.05
2023-04-20T11:00:34.330Z,21.60
2023-04-20T11:05:29.143Z,23.24
2023-04-20T11:10:24.352Z,23.93
2023-04-20T11:15:17.988Z,24.83
2023-04-20T11:20:16.484Z,25.44
2023-04-20T11:25:12.887Z,25.72
2023-04-20T11:30:12.085Z,26.26
2023-04-20T11:35:07.913Z,26.34
2023-04-20T11:40:01.946Z,26.75
2023-04-20T11:44:57.034Z,27.15
2023-04-20T11:49:50.964Z,27.48
2023-04-20T11:54:44.290Z,26.45
2023-04-20T11:59:37.732Z,26.19
2023-04-20T12:04:33.409Z,26.29
2023-04-20T12:09:27.145Z,26.91
2023-04-20T12:14:20.474Z,26.28
2023-04-20T12:19:15.610Z,25.75
2023-04-20T12:24:10.344Z,24.73
2023-04-20T12:29:03.573Z,23.77
2023-04-20T12:33:56.820Z,22.90
2023-04-20T12:38:53.926Z,20.98
2023-04-20T12:43:48.898Z,21.09
2023-04-20T12:48:42.624Z,20.13
2023-04-20T12:53:35.854Z,19.39
2023-04-20T12:58:29.067Z,18.53
2023-04-20T13:03:23.877Z,17.47
2023-04-20T13:08:17.293Z,16.90
2023-04-20T13:13:11.714Z,16.57
2023-04-20T13:18:05.375Z,15.92
2023-04-20T13:23:01.589Z,15.86
2023-04-20T13:27:55.500Z,15.08
2023-04-20T13:32:48.939Z,16.39
2023-04-20T13:37:43.143Z,16.92
2023-04-20T13:42:38.048Z,18.93
2023-04-20T13:47:33.504Z,20.69
2023-04-20T13:52:26.726Z,21.87
2023-04-20T13:57:19.962Z,22.38
2023-04-20T14:02:14.646Z,22.50
2023-04-20T14:07:08.112Z,22.79
2023-04-20T14:12:02.403Z,22.07
2023-04-20T14:16:57.799Z,21.37
2023-04-20T14:21:55.405Z,22.92
2023-04-20T14:26:48.630Z,24.35
2023-04-20T14:31:41.944Z,25.34
2023-04-20T14:36:35.259Z,26.09
2023-04-20T14:41:33.571Z,26.68
2023-04-20T14:46:29.272Z,26.60
2023-04-20T14:51:22.482Z,25.74
2023-04-20T14:56:15.695Z,24.20
2023-04-20T15:01:11.734Z,23.90
2023-04-20T15:06:05.083Z,24.11
2023-04-20T15:10:58.666Z,23.23
2023-04-20T15:15:55.012Z,21.86
2023-04-20T15:20:53.664Z,20.57
2023-04-20T15:25:46.917Z,19.96
2023-04-20T15:30:42.633Z,18.88
2023-04-20T15:35:36.227Z,18.33
2023-04-20T15:40:30.861Z,17.55
2023-04-20T15:45:24.250Z,18.02
2023-04-20T15:50:20.873Z,17.72
2023-04-20T15:55:14.162Z,17.56
2023-04-20T16:00:11.286Z,17.34
2023-04-20T16:05:05.067Z,17.17
2023-04-20T16:09:58.211Z,17.09
2023-04-20T16:14:53.920Z,16.97
2023-04-20T16:19:48.938Z,16.62
2023-04-20T16:24:42.588Z,16.75
2023-04-20T16:29:36.089Z,15.86
2023-04-20T16:34:30.633Z,16.30
2023-04-20T16:39:25.499Z,15.82
2023-04-20T16:44:19.103Z,16.01
2023-04-20T16:49:13.763Z,16.12
2023-04-20T16:54:06.981Z,14.92
2023-04-20T16:59:01.879Z,15.52
2023-04-20T17:03:55.317Z,15.79
2023-04-20T17:08:49.521Z,15.80
2023-04-20T17:13:42.911Z,15.72
2023-04-20T17:18:41.223Z,15.56
2023-04-20T17:23:38.306Z,15.52
2023-04-20T17:28:31.798Z,15.60
2023-04-20T17:33:25.248Z,15.33
2023-04-20T17:38:20.100Z,15.25
2023-04-20T17:43:13.327Z,15.33
2023-04-20T17:48:07.442Z,15.34
2023-04-20T17:53:06.431Z,15.66
2023-04-20T17:58:01.663Z,15.43
2023-04-20T18:02:55.247Z,15.41
2023-04-20T18:07:48.816Z,15.58
2023-04-20T18:12:42.421Z,15.52
2023-04-20T18:17:37.305Z,15.11
2023-04-20T18:22:30.580Z,15.37
2023-04-20T18:27:25.770Z,15.22
2023-04-20T18:32:19.304Z,14.83
2023-04-20T18:37:16.828Z,14.33
2023-04-20T18:42:12.458Z,14.51
2023-04-20T18:47:05.893Z,14.73
2023-04-20T18:52:05.458Z,14.52
2023-04-20T18:57:00.166Z,14.22
2023-04-20T19:01:53.544Z,14.01
2023-04-20T19:06:46.940Z,13.89
2023-04-20T19:11:49.046Z,13.93
2023-04-20T19:16:43.661Z,13.67
2023-04-20T19:21:37.155Z,13.40
2023-04-20T19:26:30.430Z,13.57
2023-04-20T19:31:23.769Z,13.63
2023-04-20T19:36:19.232Z,13.40
2023-04-20T19:41:12.411Z,13.72
2023-04-20T19:46:09.618Z,13.46
2023-04-20T19:51:05.797Z,13.52
2023-04-20T19:56:00.592Z,13.65
2023-04-20T20:00:55.101Z,13.65
2023-04-20T20:05:48.400Z,13.52
2023-04-20T20:10:41.932Z,13.31
2023-04-20T20:15:41.979Z,13.03
2023-04-20T20:20:37.888Z,13.59
2023-04-20T20:25:31.977Z,13.45
2023-04-20T20:30:26.131Z,13.48
2023-04-20T20:35:21.400Z,13.36
2023-04-20T20:40:15.489Z,13.00
2023-04-20T20:45:12.581Z,12.80
2023-04-20T20:50:09.585Z,13.58
2023-04-20T20:55:04.618Z,13.55
2023-04-20T21:00:00.432Z,13.31
2023-04-20T21:04:53.775Z,13.46
2023-04-20T21:09:47.056Z,13.40
2023-04-20T21:14:43.330Z,13.27
2023-04-20T21:19:36.513Z,13.32
2023-04-20T21:24:30.172Z,13.31
2023-04-20T21:29:23.599Z,13.29
2023-04-20T21:34:18.292Z,12.40
2023-04-20T21:39:17.268Z,13.25
2023-04-20T21:44:13.251Z,12.56
2023-04-20T21:49:09.399Z,13.21
2023-04-20T21:54:04.197Z,12.81
2023-04-20T21:58:57.630Z,12.91
2023-04-20T22:04:09.049Z,13.19
2023-04-20T22:09:08.233Z,13.17
2023-04-20T22:14:01.549Z,12.96
2023-04-20T22:18:54.718Z,12.86
2023-04-20T22:23:47.762Z,13.02
2023-04-20T22:28:42.525Z,13.13
2023-04-20T22:33:36.444Z,13.21
2023-04-20T22:38:29.706Z,13.22
2023-04-20T22:43:23.501Z,13.23
2023-04-20T22:48:20.814Z,13.26
2023-04-20T22:53:14.528Z,13.21
2023-04-20T22:58:07.738Z,13.26
2023-04-20T23:03:01.138Z,13.07
2023-04-20T23:07:56.955Z,13.13
2023-04-20T23:12:50.739Z,13.22
2023-04-20T23:17:43.981Z,13.08
2023-04-20T23:22:37.463Z,12.85
2023-04-20T23:27:32.029Z,13.19
2023-04-20T23:32:26.012Z,13.14
2023-04-20T23:37:19.241Z,12.88
2023-04-20T23:42:12.339Z,13.03
2023-04-20T23:47:09.894Z,12.25
2023-04-20T23:52:03.325Z,12.68
2023-04-20T23:56:57.022Z,12.88
